createdAt,value
2022-09-12T00:02:21.932Z,28.67
2022-09-12T00:04:49.504Z,27.63
2022-09-12T00:07:16.936Z,28.20
2022-09-12T00:09:45.405Z,31.52
2022-09-12T00:12:12.421Z,31.27
2022-09-12T00:14:39.556Z,30.40
2022-09-12T00:17:06.563Z,28.83
2022-09-12T00:19:33.696Z,29.20
2022-09-12T00:22:00.909Z,29.20
2022-09-12T00:24:28.127Z,27.65
2022-09-12T00:26:56.489Z,29.10
2022-09-12T00:29:23.638Z,27.95
2022-09-12T00:31:51.064Z,27.55
2022-09-12T00:34:18.199Z,27.83
2022-09-12T00:36:45.227Z,27.73
2022-09-12T00:39:16.814Z,29.05
2022-09-12T00:41:44.657Z,28.60
2022-09-12T00:44:46.172Z,28.30
2022-09-12T00:49:48.216Z,26.77
2022-09-12T00:52:20.420Z,29.42
2022-09-12T00:57:18.147Z,28.52
2022-09-12T00:59:49.057Z,28.73
2022-09-12T01:02:16.659Z,31.42
2022-09-12T01:04:45.261Z,29.20
2022-09-12T01:07:15.431Z,30.50
2022-09-12T01:09:45.317Z,29.48
2022-09-12T01:12:15.225Z,29.52
2022-09-12T01:14:42.763Z,30.63
2022-09-12T01:17:14.986Z,30.10
2022-09-12T01:20:16.692Z,30.38
2022-09-12T01:23:13.906Z,30.88
2022-09-12T01:26:00.278Z,30.92
2022-09-12T01:28:50.871Z,30.30
2022-09-12T01:31:24.591Z,29.40
2022-09-12T01:34:05.166Z,29.38
2022-09-12T01:36:42.918Z,28.77
2022-09-12T01:39:18.295Z,27.58
2022-09-12T01:41:54.544Z,30.00
2022-09-12T01:44:30.904Z,32.35
2022-09-12T01:47:05.480Z,29.70
2022-09-12T01:49:38.133Z,29.50
2022-09-12T01:52:12.785Z,29.92
2022-09-12T01:54:45.406Z,29.52
2022-09-12T01:57:20.467Z,29.05
2022-09-12T01:59:51.585Z,31.08
2022-09-12T02:02:26.275Z,29.40
2022-09-12T02:04:59.919Z,28.15
2022-09-12T02:07:33.315Z,28.80
2022-09-12T02:10:07.601Z,27.42
2022-09-12T02:12:43.023Z,31.92
2022-09-12T02:15:13.309Z,27.45
2022-09-12T02:17:44.285Z,29.47
2022-09-12T02:20:31.100Z,33.83
2022-09-12T02:23:09.897Z,33.13
2022-09-12T02:25:40.056Z,35.08
2022-09-12T02:28:11.482Z,29.52
2022-09-12T02:30:44.500Z,28.85
2022-09-12T02:33:21.827Z,29.15
2022-09-12T02:35:53.108Z,30.60
2022-09-12T02:40:52.212Z,31.25
2022-09-12T02:43:19.284Z,32.75
2022-09-12T02:45:46.384Z,33.22
2022-09-12T02:48:21.979Z,32.65
2022-09-12T02:50:49.321Z,33.20
2022-09-12T02:53:18.092Z,34.95
2022-09-12T02:55:46.152Z,33.80
2022-09-12T02:58:18.273Z,34.13
2022-09-12T03:00:51.934Z,34.35
2022-09-12T03:03:42.698Z,33.58
2022-09-12T03:09:01.728Z,36.25
2022-09-12T03:11:56.937Z,37.92
2022-09-12T03:14:45.361Z,35.03
2022-09-12T03:17:24.342Z,34.05
2022-09-12T03:19:59.118Z,32.58
2022-09-12T03:22:33.561Z,33.47
2022-09-12T03:25:11.233Z,33.33
2022-09-12T03:27:43.846Z,32.13
2022-09-12T03:30:12.656Z,31.52
2022-09-12T03:32:45.149Z,34.40
2022-09-12T03:35:17.933Z,33.72
2022-09-12T03:37:48.382Z,36.85
2022-09-12T03:40:15.612Z,39.28
2022-09-12T03:42:42.712Z,40.10
2022-09-12T03:45:11.195Z,37.33
2022-09-12T03:47:38.346Z,40.53
2022-09-12T03:50:06.522Z,42.92
2022-09-12T03:52:35.136Z,43.45
2022-09-12T03:55:02.935Z,41.95
2022-09-12T03:57:29.976Z,45.85
2022-09-12T03:59:57.000Z,46.35
2022-09-12T04:02:24.162Z,44.72
2022-09-12T04:04:51.319Z,45.42
2022-09-12T04:07:18.676Z,45.92
2022-09-12T04:09:47.222Z,44.33
2022-09-12T04:12:14.287Z,44.30
2022-09-12T04:14:41.447Z,41.78
2022-09-12T04:17:08.629Z,42.60
2022-09-12T04:19:35.755Z,42.28
2022-09-12T04:22:03.142Z,38.45
2022-09-12T04:24:30.264Z,39.88
2022-09-12T04:26:58.883Z,41.00
2022-09-12T04:29:26.176Z,39.67
2022-09-12T04:31:53.295Z,38.88
2022-09-12T04:34:20.331Z,41.67
2022-09-12T04:36:47.331Z,40.55
2022-09-12T04:39:14.591Z,43.00
2022-09-12T04:41:41.949Z,40.38
2022-09-12T04:44:13.409Z,39.50
2022-09-12T04:46:42.567Z,39.30
2022-09-12T04:49:09.729Z,38.97
2022-09-12T04:51:38.225Z,40.42
2022-09-12T04:54:07.297Z,40.17
2022-09-12T04:56:38.144Z,40.40
2022-09-12T04:59:05.752Z,41.10
2022-09-12T05:01:34.556Z,41.13
2022-09-12T05:04:02.593Z,40.42
2022-09-12T05:06:31.378Z,42.78
2022-09-12T05:08:59.817Z,40.47
2022-09-12T05:11:46.826Z,41.50
2022-09-12T05:14:19.560Z,38.33
2022-09-12T05:16:49.635Z,40.72
2022-09-12T05:19:17.364Z,39.15
2022-09-12T05:21:44.433Z,38.15
2022-09-12T05:24:12.135Z,38.72
2022-09-12T05:26:39.222Z,38.38
2022-09-12T05:29:07.346Z,38.25
2022-09-12T05:31:34.984Z,37.08
2022-09-12T05:34:10.034Z,37.38
2022-09-12T05:36:37.629Z,36.65
2022-09-12T05:39:04.923Z,36.53
2022-09-12T05:41:34.338Z,35.97
2022-09-12T05:44:03.663Z,36.03
2022-09-12T05:46:32.727Z,37.83
2022-09-12T05:49:05.539Z,37.22
2022-09-12T05:51:35.204Z,35.50
2022-09-12T05:54:04.063Z,36.22
2022-09-12T05:56:33.490Z,36.28
2022-09-12T05:59:02.369Z,37.15
2022-09-12T06:01:31.320Z,37.03
2022-09-12T06:04:00.893Z,37.88
2022-09-12T06:06:31.311Z,35.53
2022-09-12T06:09:00.541Z,37.53
2022-09-12T06:11:29.906Z,37.30
2022-09-12T06:13:58.387Z,35.83
2022-09-12T06:16:27.535Z,36.45
2022-09-12T06:18:55.817Z,35.70
2022-09-12T06:21:24.732Z,36.13
2022-09-12T06:23:54.265Z,35.85
2022-09-12T06:26:23.532Z,37.47
2022-09-12T06:28:51.300Z,36.58
2022-09-12T06:31:20.554Z,36.72
2022-09-12T06:33:49.925Z,36.05
2022-09-12T06:36:18.635Z,36.20
2022-09-12T06:38:48.920Z,36.63
2022-09-12T06:41:17.447Z,35.83
2022-09-12T06:43:44.496Z,36.60
2022-09-12T06:46:13.165Z,37.20
2022-09-12T06:48:42.183Z,36.17
2022-09-12T06:51:13.287Z,34.53
2022-09-12T06:53:41.330Z,32.78
2022-09-12T06:56:12.642Z,29.52
2022-09-12T07:01:09.811Z,27.17
2022-09-12T07:03:38.139Z,27.60
2022-09-12T07:06:06.430Z,27.40
2022-09-12T07:08:34.117Z,27.45
2022-09-12T07:11:09.744Z,27.50
2022-09-12T07:13:36.828Z,28.33
2022-09-12T07:16:06.138Z,27.77
2022-09-12T07:18:33.685Z,28.27
2022-09-12T07:21:01.989Z,27.50
2022-09-12T07:23:29.802Z,28.05
2022-09-12T07:25:58.702Z,26.48
2022-09-12T07:28:26.190Z,27.45
2022-09-12T07:30:55.984Z,26.65
2022-09-12T07:33:27.409Z,25.08
2022-09-12T07:35:54.702Z,26.13
2022-09-12T07:38:22.120Z,26.42
2022-09-12T07:40:49.214Z,25.02
2022-09-12T07:43:16.300Z,26.50
2022-09-12T07:45:43.569Z,27.02
2022-09-12T07:48:10.681Z,26.45
2022-09-12T07:50:43.169Z,26.20
2022-09-12T07:53:12.159Z,26.23
2022-09-12T07:55:39.409Z,26.10
2022-09-12T07:58:06.557Z,24.75
2022-09-12T08:00:35.941Z,25.85
2022-09-12T08:03:03.801Z,25.35
2022-09-12T08:05:30.953Z,24.48
2022-09-12T08:07:59.325Z,24.77
2022-09-12T08:10:26.372Z,26.13
2022-09-12T08:12:53.571Z,23.33
2022-09-12T08:15:20.738Z,22.05
2022-09-12T08:17:47.770Z,22.40
2022-09-12T08:20:15.027Z,23.02
2022-09-12T08:22:43.223Z,22.95
2022-09-12T08:25:11.768Z,23.48
2022-09-12T08:27:39.308Z,21.55
2022-09-12T08:30:07.321Z,22.20
2022-09-12T08:32:35.108Z,22.33
2022-09-12T08:35:03.003Z,21.55
2022-09-12T08:37:30.380Z,20.60
2022-09-12T08:39:57.988Z,21.17
2022-09-12T08:42:47.148Z,20.38
2022-09-12T08:45:20.657Z,19.88
2022-09-12T08:47:48.580Z,20.77
2022-09-12T08:50:18.104Z,20.73
2022-09-12T08:52:54.777Z,21.05
2022-09-12T08:55:33.563Z,19.23
2022-09-12T08:58:10.602Z,20.23
2022-09-12T09:00:49.440Z,19.63
2022-09-12T09:03:44.455Z,19.40
2022-09-12T09:06:23.264Z,20.73
2022-09-12T09:08:58.839Z,19.58
2022-09-12T09:11:41.827Z,20.23
2022-09-12T09:14:44.954Z,20.30
2022-09-12T09:17:19.433Z,19.92
2022-09-12T09:19:51.477Z,19.40
2022-09-12T09:22:27.038Z,19.58
2022-09-12T09:25:05.075Z,19.40
2022-09-12T09:27:40.760Z,19.98
2022-09-12T09:30:15.433Z,18.77
2022-09-12T09:32:44.725Z,19.40
2022-09-12T09:35:18.844Z,18.90
2022-09-12T09:38:01.052Z,16.95
2022-09-12T09:40:37.389Z,17.33
2022-09-12T09:43:12.340Z,16.48
2022-09-12T09:45:44.497Z,17.70
2022-09-12T09:48:19.396Z,18.20
2022-09-12T09:50:49.495Z,15.10
2022-09-12T09:53:37.203Z,15.52
2022-09-12T09:56:11.835Z,15.30
2022-09-12T09:58:40.628Z,15.32
2022-09-12T10:01:16.088Z,14.88
2022-09-12T10:03:50.245Z,13.25
2022-09-12T10:06:32.353Z,13.38
2022-09-12T10:09:17.972Z,13.20
2022-09-12T10:11:46.897Z,13.60
2022-09-12T10:14:32.135Z,12.13
2022-09-12T10:17:01.676Z,12.52
2022-09-12T10:19:35.445Z,12.80
2022-09-12T10:22:03.895Z,12.05
2022-09-12T10:24:34.786Z,12.23
2022-09-12T10:29:44.897Z,10.13
2022-09-12T10:32:21.519Z,10.07
2022-09-12T10:34:51.202Z,10.90
2022-09-12T10:37:24.473Z,10.00
2022-09-12T10:39:54.565Z,8.98
2022-09-12T10:42:44.319Z,8.95
2022-09-12T10:45:20.438Z,9.75
2022-09-12T10:47:49.619Z,9.88
2022-09-12T10:50:27.084Z,9.80
2022-09-12T10:52:54.435Z,7.35
2022-09-12T10:55:29.571Z,6.68
2022-09-12T10:58:24.661Z,5.90
2022-09-12T11:01:03.624Z,15.70
2022-09-12T11:03:49.851Z,13.63
2022-09-12T11:06:21.281Z,6.55
2022-09-12T11:09:03.588Z,7.05
2022-09-12T11:11:45.452Z,6.22
2022-09-12T11:14:28.313Z,7.03
2022-09-12T11:17:02.958Z,6.80
2022-09-12T11:19:53.301Z,5.47
2022-09-12T11:22:32.785Z,6.78
2022-09-12T11:25:13.018Z,6.53
2022-09-12T11:28:14.134Z,6.40
2022-09-12T11:33:28.800Z,6.50
2022-09-12T11:36:00.151Z,7.10
2022-09-12T11:38:45.973Z,7.45
2022-09-12T11:41:20.612Z,7.25
2022-09-12T11:43:51.885Z,7.55
2022-09-12T11:46:24.468Z,7.60
2022-09-12T11:48:57.997Z,6.72
2022-09-12T11:51:30.729Z,7.97
2022-09-12T11:54:06.937Z,7.03
2022-09-12T11:56:36.215Z,4.90
2022-09-12T11:59:12.252Z,5.43
2022-09-12T12:01:48.504Z,6.20
2022-09-12T12:04:22.237Z,5.80
2022-09-12T12:06:56.624Z,6.43
2022-09-12T12:09:24.603Z,6.10
2022-09-12T12:11:57.924Z,5.88
2022-09-12T12:14:30.268Z,5.10
2022-09-12T12:16:57.655Z,5.38
2022-09-12T12:19:33.900Z,5.90
2022-09-12T12:22:13.013Z,5.78
2022-09-12T12:25:01.436Z,4.93
2022-09-12T12:27:49.220Z,3.88
2022-09-12T12:30:59.989Z,5.13
2022-09-12T12:34:01.562Z,4.55
2022-09-12T12:36:40.458Z,2.75
2022-09-12T12:39:48.217Z,3.17
2022-09-12T12:42:52.483Z,3.03
2022-09-12T12:45:58.697Z,3.50
2022-09-12T12:48:26.096Z,3.10
2022-09-12T12:50:53.318Z,3.10
2022-09-12T12:53:24.867Z,3.58
2022-09-12T12:55:53.169Z,3.88
2022-09-12T12:58:31.793Z,4.20
2022-09-12T13:01:12.084Z,4.63
2022-09-12T13:03:43.673Z,4.15
2022-09-12T13:06:29.223Z,4.70
2022-09-12T13:09:00.480Z,4.32
2022-09-12T13:11:33.959Z,3.83
2022-09-12T13:14:03.146Z,3.28
2022-09-12T13:16:55.131Z,3.25
2022-09-12T13:19:28.205Z,3.00
2022-09-12T13:21:55.495Z,3.40
2022-09-12T13:24:23.704Z,3.03
2022-09-12T13:26:51.148Z,3.00
2022-09-12T13:29:19.622Z,2.60
2022-09-12T13:31:52.842Z,2.70
2022-09-12T13:34:22.745Z,2.47
2022-09-12T13:37:22.512Z,2.73
2022-09-12T13:39:55.491Z,3.00
2022-09-12T13:42:39.027Z,3.10
2022-09-12T13:45:13.318Z,3.20
2022-09-12T13:47:44.415Z,10.98
2022-09-12T13:50:19.676Z,3.63
2022-09-12T13:52:51.448Z,3.15
2022-09-12T13:55:30.440Z,2.65
2022-09-12T13:58:00.389Z,2.65
2022-09-12T14:00:31.630Z,3.10
2022-09-12T14:03:19.088Z,2.90
2022-09-12T14:05:57.386Z,2.72
2022-09-12T14:08:24.857Z,2.65
2022-09-12T14:10:54.560Z,2.60
2022-09-12T14:13:24.916Z,3.08
2022-09-12T14:15:56.030Z,2.78
2022-09-12T14:18:27.090Z,2.60
2022-09-12T14:20:56.919Z,2.53
2022-09-12T14:23:29.807Z,2.40
2022-09-12T14:25:59.898Z,2.72
2022-09-12T14:28:30.282Z,2.65
2022-09-12T14:31:05.211Z,3.15
2022-09-12T14:33:46.959Z,2.47
2022-09-12T14:36:21.912Z,2.50
2022-09-12T14:38:51.573Z,2.88
2022-09-12T14:41:24.401Z,2.38
2022-09-12T14:43:56.459Z,2.42
2022-09-12T14:46:28.481Z,2.65
2022-09-12T14:49:02.146Z,2.28
2022-09-12T14:51:33.892Z,2.30
2022-09-12T14:54:01.484Z,3.90
2022-09-12T14:56:40.999Z,2.30
2022-09-12T14:59:26.422Z,3.20
2022-09-12T15:02:26.275Z,3.60
2022-09-12T15:05:15.543Z,2.53
2022-09-12T15:07:47.168Z,2.80
2022-09-12T15:10:23.001Z,2.72
2022-09-12T15:12:50.407Z,2.85
2022-09-12T15:15:20.199Z,2.55
2022-09-12T15:17:47.449Z,2.60
2022-09-12T15:20:16.022Z,3.00
2022-09-12T15:22:43.612Z,3.13
2022-09-12T15:25:12.607Z,3.00
2022-09-12T15:27:40.941Z,2.95
2022-09-12T15:30:13.429Z,3.22
2022-09-12T15:32:42.913Z,3.22
2022-09-12T15:35:14.845Z,2.50
2022-09-12T15:37:43.595Z,2.45
2022-09-12T15:40:16.002Z,2.55
2022-09-12T15:42:43.871Z,2.20
2022-09-12T15:45:17.414Z,2.80
2022-09-12T15:47:44.802Z,2.78
2022-09-12T15:50:12.012Z,2.42
2022-09-12T15:52:39.678Z,3.28
2022-09-12T15:55:13.489Z,2.70
2022-09-12T15:57:40.702Z,2.60
2022-09-12T16:00:08.950Z,2.50
2022-09-12T16:05:11.432Z,2.70
2022-09-12T16:07:38.548Z,2.33
2022-09-12T16:10:13.493Z,2.63
2022-09-12T16:12:45.026Z,2.90
2022-09-12T16:15:14.668Z,2.50
2022-09-12T16:17:42.120Z,2.78
2022-09-12T16:20:10.202Z,2.90
2022-09-12T16:22:37.891Z,2.83
2022-09-12T16:25:08.167Z,2.92
2022-09-12T16:27:37.643Z,2.78
2022-09-12T16:30:06.110Z,2.58
2022-09-12T16:32:33.243Z,2.50
2022-09-12T16:35:00.428Z,2.45
2022-09-12T16:37:29.880Z,2.53
2022-09-12T16:39:57.063Z,2.30
2022-09-12T16:42:24.377Z,2.55
2022-09-12T16:44:52.971Z,2.33
2022-09-12T16:47:20.089Z,2.38
2022-09-12T16:49:47.285Z,2.90
2022-09-12T16:52:16.588Z,2.55
2022-09-12T16:54:46.672Z,2.47
2022-09-12T16:57:14.066Z,2.00
2022-09-12T16:59:41.547Z,2.03
2022-09-12T17:02:12.298Z,2.13
2022-09-12T17:04:39.577Z,2.03
2022-09-12T17:07:06.971Z,2.45
2022-09-12T17:09:34.215Z,2.00
2022-09-12T17:12:01.615Z,2.30
2022-09-12T17:14:29.125Z,2.05
2022-09-12T17:16:56.269Z,2.17
2022-09-12T17:19:32.996Z,2.00
2022-09-12T17:22:00.510Z,1.95
2022-09-12T17:24:27.891Z,1.83
2022-09-12T17:26:55.219Z,1.90
2022-09-12T17:29:22.320Z,2.10
2022-09-12T17:31:49.488Z,2.20
2022-09-12T17:34:17.837Z,2.60
2022-09-12T17:36:48.358Z,2.38
2022-09-12T17:39:15.746Z,2.20
2022-09-12T17:41:43.182Z,2.40
2022-09-12T17:44:12.534Z,2.45
2022-09-12T17:46:39.880Z,2.33
2022-09-12T17:49:10.611Z,2.50
2022-09-12T17:51:37.790Z,2.45
2022-09-12T17:54:08.589Z,2.65
2022-09-12T17:56:37.130Z,2.65
2022-09-12T17:59:05.799Z,2.30
2022-09-12T18:01:51.970Z,2.50
2022-09-12T18:04:20.088Z,2.88
2022-09-12T18:06:48.894Z,2.88
2022-09-12T18:09:19.495Z,3.20
2022-09-12T18:11:48.124Z,2.70
2022-09-12T18:14:15.814Z,2.92
2022-09-12T18:16:43.278Z,2.72
2022-09-12T18:19:10.996Z,2.70
2022-09-12T18:21:38.630Z,2.65
2022-09-12T18:24:06.461Z,3.45
2022-09-12T18:26:35.901Z,3.00
2022-09-12T18:29:03.076Z,2.92
2022-09-12T18:31:30.594Z,2.92
2022-09-12T18:34:01.045Z,2.72
2022-09-12T18:36:28.854Z,3.00
2022-09-12T18:38:57.430Z,2.83
2022-09-12T18:41:25.323Z,3.03
2022-09-12T18:43:57.787Z,3.13
2022-09-12T18:46:26.224Z,3.25
2022-09-12T18:48:55.531Z,3.10
2022-09-12T18:51:25.696Z,3.70
2022-09-12T18:53:56.006Z,3.70
2022-09-12T18:56:24.937Z,3.33
2022-09-12T18:58:54.362Z,3.53
2022-09-12T19:01:24.961Z,3.65
2022-09-12T19:03:53.367Z,3.70
2022-09-12T19:06:22.788Z,3.17
2022-09-12T19:08:51.267Z,3.35
2022-09-12T19:11:19.541Z,3.47
2022-09-12T19:13:48.753Z,3.17
2022-09-12T19:16:19.353Z,3.65
2022-09-12T19:18:52.384Z,3.53
2022-09-12T19:21:22.347Z,3.53
2022-09-12T19:23:49.862Z,3.70
2022-09-12T19:26:18.905Z,4.20
2022-09-12T19:28:47.232Z,3.80
2022-09-12T19:31:16.620Z,3.58
2022-09-12T19:33:44.656Z,4.03
2022-09-12T19:36:40.833Z,4.05
2022-09-12T19:39:02.308Z,3.90
2022-09-12T19:41:29.700Z,4.38
2022-09-12T19:43:57.161Z,4.00
2022-09-12T19:46:26.150Z,4.47
2022-09-12T19:48:54.213Z,4.10
2022-09-12T19:51:23.983Z,4.20
2022-09-12T19:53:51.664Z,4.30
2022-09-12T19:56:19.022Z,4.30
2022-09-12T19:58:52.065Z,4.82
2022-09-12T20:01:30.481Z,4.15
2022-09-12T20:03:58.138Z,4.63
2022-09-12T20:06:27.348Z,4.30
2022-09-12T20:08:55.018Z,4.32
2022-09-12T20:11:24.050Z,4.50
2022-09-12T20:13:51.777Z,4.35
2022-09-12T20:16:22.591Z,4.40
2022-09-12T20:21:26.129Z,4.22
2022-09-12T20:23:54.973Z,3.95
2022-09-12T20:26:24.820Z,4.40
2022-09-12T20:28:52.229Z,4.53
2022-09-12T20:31:19.349Z,4.50
2022-09-12T20:33:51.127Z,5.28
2022-09-12T20:36:20.615Z,5.10
2022-09-12T20:38:49.657Z,5.82
2022-09-12T20:41:19.923Z,4.40
2022-09-12T20:43:50.150Z,5.30
2022-09-12T20:46:21.646Z,5.60
2022-09-12T20:48:50.472Z,5.10
2022-09-12T20:51:17.973Z,6.32
2022-09-12T20:53:45.378Z,7.45
2022-09-12T20:56:12.463Z,7.40
2022-09-12T20:58:44.058Z,6.70
2022-09-12T21:01:13.925Z,6.63
2022-09-12T21:03:42.604Z,6.80
2022-09-12T21:06:12.544Z,7.00
2022-09-12T21:08:40.182Z,7.55
2022-09-12T21:11:07.643Z,7.85
2022-09-12T21:13:34.833Z,8.23
2022-09-12T21:16:05.558Z,7.97
2022-09-12T21:18:33.750Z,8.43
2022-09-12T21:21:00.986Z,7.28
2022-09-12T21:23:28.356Z,7.03
2022-09-12T21:25:55.357Z,7.65
2022-09-12T21:28:22.460Z,7.57
2022-09-12T21:30:50.217Z,6.97
2022-09-12T21:33:20.380Z,7.25
2022-09-12T21:35:48.122Z,6.93
2022-09-12T21:38:16.083Z,6.35
2022-09-12T21:40:43.631Z,6.70
2022-09-12T21:43:12.973Z,6.72
2022-09-12T21:45:40.684Z,6.90
2022-09-12T21:48:08.568Z,6.47
2022-09-12T21:50:37.098Z,6.63
2022-09-12T21:53:04.461Z,6.75
2022-09-12T21:55:31.481Z,6.10
2022-09-12T21:57:58.576Z,5.95
2022-09-12T22:00:26.242Z,5.68
2022-09-12T22:02:53.833Z,5.68
2022-09-12T22:05:22.267Z,5.85
2022-09-12T22:07:50.853Z,5.80
2022-09-12T22:10:17.961Z,5.88
2022-09-12T22:12:46.538Z,5.63
2022-09-12T22:15:38.910Z,5.00
2022-09-12T22:18:01.001Z,5.18
2022-09-12T22:20:28.526Z,5.07
2022-09-12T22:23:15.509Z,5.57
2022-09-12T22:25:45.439Z,6.13
2022-09-12T22:28:13.783Z,5.82
2022-09-12T22:30:43.548Z,6.60
2022-09-12T22:33:10.565Z,7.78
2022-09-12T22:35:37.835Z,7.55
2022-09-12T22:38:06.239Z,7.53
2022-09-12T22:40:33.396Z,7.70
2022-09-12T22:43:01.221Z,8.52
2022-09-12T22:45:28.265Z,8.00
2022-09-12T22:48:00.844Z,7.85
2022-09-12T22:50:28.587Z,8.45
2022-09-12T22:52:55.737Z,9.05
2022-09-12T22:55:24.265Z,8.60
2022-09-12T22:57:51.437Z,8.77
2022-09-12T23:00:19.503Z,8.68
2022-09-12T23:02:46.765Z,8.80
2022-09-12T23:05:14.024Z,8.90
2022-09-12T23:07:41.054Z,7.93
2022-09-12T23:10:09.442Z,8.88
2022-09-12T23:12:37.920Z,7.78
2022-09-12T23:15:05.907Z,8.52
2022-09-12T23:17:35.939Z,8.80
2022-09-12T23:20:04.714Z,9.23
2022-09-12T23:22:32.052Z,9.65
2022-09-12T23:24:59.096Z,8.80
2022-09-12T23:27:27.290Z,9.23
2022-09-12T23:29:55.701Z,8.68
2022-09-12T23:32:22.750Z,9.27
2022-09-12T23:34:49.909Z,8.98
2022-09-12T23:37:16.971Z,9.82
2022-09-12T23:39:44.556Z,9.55
2022-09-12T23:42:12.099Z,9.52
2022-09-12T23:44:39.095Z,9.35
2022-09-12T23:47:07.556Z,9.20
2022-09-12T23:49:34.733Z,9.23
2022-09-12T23:52:02.253Z,9.35
2022-09-12T23:54:29.328Z,10.88
2022-09-12T23:56:56.362Z,11.27
2022-09-12T23:59:23.400Z,10.35
